• Join FlightAware (Why Join?)
  • Login
  • US Flag 
07:47AM EDT


 

Airport Tracker/Info


-or-


 

Live Flight TrackerFlight Track Log ✈ SIL4039 ✈ 12-May-2013 ✈ KPNS - KTPA

Flight Track Log - Related Links

Times and Time Zones

All times are in EDT time to prevent confusion due to time zone crossing. See the SIL4039 flight status page for this flight to view local times or setup timezone preferences in your user account.

Time Position Orientation Groundspeed Altitude Reporting Facility
EDT Latitude Longitude Course Direction KTS MPH feet Rate Location/Type
05:39PM 30.5133 -87.1914 North 161 185 1,600  Level Jacksonville Center
05:41PM 30.4938 -87.1111 106° East  Level FlightAware Approximate
05:48PM 30.2414 -86.6284 90° East  Level Estimated
05:49PM 30.2052 -86.5597 82° East  Level Estimated
05:50PM 30.2658 -86.5201 29° Northeast  Level FlightAware Approximate
05:51PM 30.2286 -86.4521 90° East  Level Estimated
05:52PM 30.2762 -86.3934 47° Northeast  Level FlightAware Approximate
05:53PM 30.3239 -86.3347 47° Northeast  Level FlightAware Approximate
05:54PM 30.2846 -86.2682 90° East  Level Estimated
05:55PM 30.2453 -86.2017 83° East  Level Estimated
05:55PM 30.5225 -86.1069 88° East 260 299 17,600  Level Jacksonville Center
05:56PM 30.2894 -86.1394 51° Northeast  Level FlightAware Approximate
05:56PM 30.5097 -86.0294 101° East 260 299 18,200  Level Jacksonville Center
05:57PM 30.2491 -86.0738 90° East  Level Estimated
05:57PM 30.4950 -85.9469 102° East 260 299 18,800  Level Jacksonville Center
05:58PM 30.2864 -86.0058 58° Northeast  Level FlightAware Approximate
05:58PM 30.4822 -85.8694 101° East 260 299 19,400  Level Jacksonville Center
05:59PM 30.3236 -85.9378 58° Northeast  Level FlightAware Approximate
05:59PM 30.4653 -85.7894 104° East 260 299 19,900  Level Jacksonville Center
06:00PM 30.2813 -85.8738 88° East  Level Estimated
06:00PM 30.4483 -85.7094 104° East 260 299 20,300  Level Jacksonville Center
06:01PM 30.4292 -85.6292 105° East 260 299 20,900 300 Climbing Jacksonville Center
06:02PM 30.4122 -85.5469 103° East 260 299 21,000  Climbing Jacksonville Center
06:03PM 30.3892 -85.4522 106° East 266 306 21,000  Level Jacksonville Center
06:04PM 30.3636 -85.3625 108° East 273 314 21,000  Level Jacksonville Center
06:05PM 30.3342 -85.2753 111° Southeast 284 327 21,000  Level Jacksonville Center
06:06PM 30.3044 -85.1856 111° Southeast 289 333 21,000  Level Jacksonville Center
06:07PM 30.2747 -85.0958 111° Southeast 294 338 21,000  Level Jacksonville Center
06:08PM 30.2428 -85.0036 112° Southeast 294 338 21,000  Level Jacksonville Center
06:09PM 30.2128 -84.9164 112° Southeast 294 338 21,000  Level Jacksonville Center
06:10PM 30.1808 -84.8222 111° Southeast 294 338 21,000  Level Jacksonville Center
06:11PM 30.1553 -84.7303 108° East 299 344 21,000  Level Jacksonville Center
06:12PM 30.1272 -84.6386 109° East 299 344 21,000  Level Jacksonville Center
06:13PM 30.0950 -84.5467 112° Southeast 299 344 21,000  Level Jacksonville Center
06:14PM 30.0669 -84.4575 110° East 299 344 21,000  Level Jacksonville Center
06:15PM 30.0347 -84.3681 113° Southeast 299 344 21,000  Level Jacksonville Center
06:16PM 30.0022 -84.2814 113° Southeast 299 344 21,000  Level Jacksonville Center
06:17PM 29.9675 -84.1922 114° Southeast 299 344 21,000  Level Jacksonville Center
06:18PM 29.9392 -84.1125 112° Southeast 299 344 21,000  Level Jacksonville Center
06:19PM 29.9086 -84.0236 112° Southeast 294 338 21,000  Level Jacksonville Center
06:20PM 29.8739 -83.9394 115° Southeast 294 338 21,000  Level Jacksonville Center
06:21PM 29.8117 -83.8811 141° Southeast 294 338 21,000  Level Jacksonville Center
06:22PM 29.7431 -83.8350 150° Southeast 280 322 21,000  Level Jacksonville Center
06:23PM 29.6767 -83.7867 148° Southeast 285 328 21,000  Level Jacksonville Center
06:24PM 29.6144 -83.7336 143° Southeast 285 328 21,000  Level Jacksonville Center
06:25PM 29.5481 -83.6853 148° Southeast 285 328 21,000  Level Jacksonville Center
06:26PM 29.4814 -83.6442 152° Southeast 280 322 21,000  Level Jacksonville Center
06:27PM 29.4106 -83.6006 152° Southeast 280 322 21,000  Level Jacksonville Center
06:28PM 29.3419 -83.5597 153° Southeast 280 322 21,000  Level Jacksonville Center
06:29PM 29.2753 -83.5186 152° Southeast 275 316 21,000 -60 Level Jacksonville Center
06:30PM 29.2089 -83.4778 152° Southeast 275 316 20,900 -960 Descending Jacksonville Center
06:31PM 29.1233 -83.4417 160° South 289 333 19,100 -1,620 Descending Jacksonville Center
06:32PM 29.0442 -83.4103 161° South 296 341 17,700 -1,320 Descending Jacksonville Center
06:33PM 28.9817 -83.3719 152° Southeast 280 322 16,500 -1,500 Descending Jacksonville Center
06:34PM 28.9256 -83.3244 143° Southeast 259 298 14,800 -1,800 Descending Jacksonville Center
06:35PM 28.8611 -83.2694 143° Southeast 269 310 13,000 -1,860 Descending Jacksonville Center
06:36PM 28.7881 -83.2194 149° Southeast 291 335 11,100 -1,080 Descending Jacksonville Center
06:37PM 28.7194 -83.1742 150° Southeast 296 341 10,900 -120 Descending Jacksonville Center
06:38PM 28.6506 -83.1386 156° South 281 323 10,900 60 Level Jacksonville Center
06:39PM 28.6000 -83.1167 159° South 268 308 11,000 60 Climbing Tampa TRACON
06:40PM 28.5333 -83.0833 156° South 265 305 11,000  Level Tampa TRACON
06:41PM 28.4833 -83.0333 139° Southeast 264 304 11,000  Level Tampa TRACON
06:42PM 28.4167 -82.9667 139° Southeast 269 310 11,000 -480 Level Tampa TRACON
06:43PM 28.3833 -82.9000 120° Southeast 274 315 10,100 -1,260 Descending Tampa TRACON
06:44PM 28.3167 -82.8333 139° Southeast 294 338 8,700 -1,440 Descending Tampa TRACON
06:45PM 28.2500 -82.7667 139° Southeast 272 313 7,100 -840 Descending Tampa TRACON
06:46PM 28.2000 -82.7167 139° Southeast 262 302 7,000 -180 Descending Tampa TRACON
06:47PM 28.1500 -82.6667 139° Southeast 254 292 6,800 -600 Descending Tampa TRACON
06:48PM 28.0833 -82.6333 156° South 278 320 5,900 -960 Descending Tampa TRACON
06:49PM 28.0167 -82.6167 168° South 263 303 5,000 -540 Descending Tampa TRACON
06:50PM 27.9500 -82.6167 180° South 260 299 4,900 -1,020 Descending Tampa TRACON
06:51PM 27.8667 -82.6167 180° South 255 293 3,000 -1,200 Descending Tampa TRACON
06:52PM 27.8500 -82.5500 106° East 238 274 2,600 -780 Descending Tampa TRACON
06:54PM 27.9500 -82.5333 North 129 148 600 -960 Descending Tampa TRACON
06:56PM 27.9667 -82.5167 130° Southeast  Level FlightAware Approximate
07:03PM 27.9755 -82.5332 130° Southeast  Level Estimated
07:04PM 27.9755 -82.5332 130° Southeast  Level Estimated